GMMO weather

Taroudant Airport
Taroudant, Taroudannt Province, Morocco

Public forecast

Using degrees Celsius for public forecast. Weather courtesy of forecast.io.

Current aviation weather report (METAR) for Taroudant Airport

Report is more than 6 hours old.

Retrieved 2018/02/06 15:53 UTC (2 years ago):

GMMO 061553Z 25017G28KT 210V280 9999 FEW030 17/01 Q1012 M1

Aviation forecast (TAF) for Taroudant Airport

Forecast is more than 12 hours old.

Retrieved 2017/06/15 06:00 UTC (3 years ago):

TAF GMMO 150500Z 1506/1612 04008KT 8000 BKN016 BECMG 1506/1510 36012KT SCT016 BECMG 1518/1522 02004KT TEMPO 1602/1608 BKN010